N31B KFFA-KAUO
Flight info
| Callsign | N31B |
|---|---|
| Flight time | N/A |
| Altitude | 32000 |
| Route | BENCH HRTWL |
| Aircraft | E50P/L-SBDFGRWY/LB2 |
Departure
| Time | 2026-04-27 21:11 |
|---|---|
| Airport | First Flight Airport (KFFA) |
Arrival
| Time | N/A |
|---|---|
| Airport | Auburn University Regional Airport (KAUO) |
| Time | Latitude | Longitude | Altitude | Speed | Heading |
|---|---|---|---|---|---|
| 2026-04-27 21:06 | 36.01383 | -75.67184 | 18 ft | 0 kts | 14° |
| 2026-04-27 21:08 | 36.01399 | -75.67181 | 18 ft | 4 kts | 339° |
| 2026-04-27 21:08 | 36.01408 | -75.67202 | 18 ft | 3 kts | 287° |
| 2026-04-27 21:08 | 36.01410 | -75.67212 | 18 ft | 0 kts | 277° |
| 2026-04-27 21:09 | 36.01407 | -75.67221 | 18 ft | 3 kts | 223° |
| 2026-04-27 21:09 | 36.01377 | -75.67235 | 18 ft | 6 kts | 218° |
| 2026-04-27 21:09 | 36.01375 | -75.67287 | 16 ft | 2 kts | 334° |
| 2026-04-27 21:10 | 36.01380 | -75.67286 | 16 ft | 0 kts | 16° |
| 2026-04-27 21:10 | 36.01404 | -75.67278 | 17 ft | 23 kts | 16° |
| 2026-04-27 21:10 | 36.01784 | -75.67153 | 20 ft | 86 kts | 16° |
| 2026-04-27 21:10 | 36.02421 | -75.66952 | 398 ft | 99 kts | 9° |
| 2026-04-27 21:11 | 36.03170 | -75.66790 | 871 ft | 121 kts | 1° |
| 2026-04-27 21:11 | 36.03894 | -75.67468 | 1603 ft | 155 kts | 299° |
| 2026-04-27 21:11 | 36.03996 | -75.68811 | 2610 ft | 162 kts | 266° |
| 2026-04-27 21:11 | 36.03587 | -75.70142 | 3385 ft | 168 kts | 245° |
| 2026-04-27 21:12 | 36.03054 | -75.71475 | 3991 ft | 182 kts | 250° |
| 2026-04-27 21:12 | 36.02492 | -75.73004 | 4401 ft | 207 kts | 248° |
| 2026-04-27 21:12 | 36.01859 | -75.74605 | 5174 ft | 207 kts | 248° |
| 2026-04-27 21:12 | 36.01254 | -75.76216 | 5929 ft | 207 kts | 249° |
| 2026-04-27 21:13 | 36.00649 | -75.77832 | 6678 ft | 207 kts | 250° |
| 2026-04-27 21:13 | 36.00044 | -75.79446 | 7347 ft | 206 kts | 250° |
| 2026-04-27 21:13 | 35.99447 | -75.81043 | 7808 ft | 209 kts | 250° |
| 2026-04-27 21:13 | 35.98837 | -75.82670 | 8312 ft | 209 kts | 250° |
| 2026-04-27 21:14 | 35.98226 | -75.84300 | 8811 ft | 209 kts | 250° |
| 2026-04-27 21:14 | 35.97615 | -75.85930 | 9314 ft | 209 kts | 251° |
| 2026-04-27 21:14 | 35.97002 | -75.87562 | 9827 ft | 210 kts | 250° |
| 2026-04-27 21:14 | 35.96388 | -75.89198 | 10330 ft | 210 kts | 251° |
| 2026-04-27 21:15 | 35.95770 | -75.90842 | 10804 ft | 211 kts | 251° |
| 2026-04-27 21:15 | 35.95150 | -75.92489 | 11258 ft | 212 kts | 251° |
| 2026-04-27 21:15 | 35.94527 | -75.94144 | 11706 ft | 213 kts | 251° |
| 2026-04-27 21:15 | 35.93904 | -75.95807 | 12165 ft | 214 kts | 251° |
| 2026-04-27 21:16 | 35.93282 | -75.97452 | 12611 ft | 215 kts | 251° |
| 2026-04-27 21:16 | 35.92652 | -75.99131 | 13078 ft | 215 kts | 251° |
| 2026-04-27 21:16 | 35.92017 | -76.00810 | 13548 ft | 216 kts | 251° |
| 2026-04-27 21:16 | 35.91383 | -76.02496 | 14015 ft | 217 kts | 251° |
| 2026-04-27 21:17 | 35.90741 | -76.04192 | 14435 ft | 218 kts | 251° |
| 2026-04-27 21:17 | 35.90101 | -76.05894 | 14848 ft | 219 kts | 251° |
| 2026-04-27 21:17 | 35.89453 | -76.07604 | 15268 ft | 221 kts | 251° |
| 2026-04-27 21:17 | 35.88802 | -76.09331 | 15685 ft | 222 kts | 251° |
| 2026-04-27 21:18 | 35.88145 | -76.11063 | 16104 ft | 224 kts | 251° |
| 2026-04-27 21:18 | 35.87493 | -76.12792 | 16536 ft | 225 kts | 250° |
| 2026-04-27 21:18 | 35.86825 | -76.14551 | 16977 ft | 227 kts | 250° |
| 2026-04-27 21:18 | 35.86156 | -76.16322 | 17435 ft | 228 kts | 250° |
| 2026-04-27 21:19 | 35.85482 | -76.18102 | 17912 ft | 230 kts | 250° |
| 2026-04-27 21:19 | 35.84801 | -76.19895 | 18380 ft | 232 kts | 250° |
| 2026-04-27 21:19 | 35.84115 | -76.21702 | 18807 ft | 233 kts | 250° |
| 2026-04-27 21:20 | 35.82741 | -76.25325 | 19629 ft | 236 kts | 250° |
| 2026-04-27 21:20 | 35.82042 | -76.27159 | 20050 ft | 237 kts | 250° |
| 2026-04-27 21:20 | 35.81340 | -76.29009 | 20469 ft | 239 kts | 250° |
| 2026-04-27 21:20 | 35.80629 | -76.30874 | 20900 ft | 241 kts | 251° |
| 2026-04-27 21:21 | 35.79918 | -76.32746 | 21344 ft | 242 kts | 251° |
| 2026-04-27 21:21 | 35.79198 | -76.34632 | 21791 ft | 244 kts | 251° |
| 2026-04-27 21:21 | 35.78474 | -76.36535 | 22248 ft | 246 kts | 251° |
| 2026-04-27 21:21 | 35.77745 | -76.38444 | 22715 ft | 247 kts | 251° |
| 2026-04-27 21:22 | 35.77011 | -76.40370 | 23177 ft | 249 kts | 251° |
| 2026-04-27 21:22 | 35.76268 | -76.42313 | 23654 ft | 251 kts | 251° |
| 2026-04-27 21:22 | 35.75530 | -76.44247 | 24078 ft | 253 kts | 251° |
| 2026-04-27 21:22 | 35.74779 | -76.46210 | 24494 ft | 254 kts | 251° |
| 2026-04-27 21:23 | 35.74028 | -76.48173 | 24916 ft | 254 kts | 252° |
| 2026-04-27 21:23 | 35.73272 | -76.50148 | 25344 ft | 255 kts | 252° |
| 2026-04-27 21:23 | 35.72513 | -76.52130 | 25769 ft | 256 kts | 252° |
| 2026-04-27 21:23 | 35.71751 | -76.54117 | 26205 ft | 256 kts | 252° |
| 2026-04-27 21:24 | 35.70990 | -76.56101 | 26632 ft | 257 kts | 252° |
| 2026-04-27 21:24 | 35.70225 | -76.58096 | 27066 ft | 258 kts | 252° |
| 2026-04-27 21:24 | 35.69455 | -76.60100 | 27504 ft | 259 kts | 253° |
| 2026-04-27 21:24 | 35.68684 | -76.62111 | 27955 ft | 260 kts | 253° |
| 2026-04-27 21:25 | 35.67908 | -76.64125 | 28395 ft | 261 kts | 253° |
| 2026-04-27 21:25 | 35.67132 | -76.66147 | 28844 ft | 262 kts | 253° |
| 2026-04-27 21:25 | 35.66349 | -76.68178 | 29287 ft | 263 kts | 253° |
| 2026-04-27 21:25 | 35.65573 | -76.70194 | 29718 ft | 264 kts | 253° |
| 2026-04-27 21:26 | 35.64782 | -76.72245 | 30148 ft | 266 kts | 253° |
| 2026-04-27 21:26 | 35.63989 | -76.74302 | 30516 ft | 267 kts | 253° |
| 2026-04-27 21:26 | 35.63189 | -76.76377 | 30827 ft | 270 kts | 254° |
| 2026-04-27 21:26 | 35.62381 | -76.78469 | 31127 ft | 272 kts | 254° |
| 2026-04-27 21:27 | 35.61566 | -76.80581 | 31426 ft | 275 kts | 254° |
| 2026-04-27 21:27 | 35.60748 | -76.82682 | 31888 ft | 270 kts | 254° |
| 2026-04-27 21:27 | 35.59941 | -76.84769 | 32237 ft | 270 kts | 255° |
| 2026-04-27 21:27 | 35.59126 | -76.86905 | 32265 ft | 283 kts | 255° |
| 2026-04-27 21:28 | 35.58278 | -76.89109 | 32263 ft | 294 kts | 255° |
| 2026-04-27 21:28 | 35.57623 | -76.91492 | 32269 ft | 296 kts | 264° |
| 2026-04-27 21:28 | 35.56474 | -76.96526 | 32274 ft | 315 kts | 262° |
| 2026-04-27 21:29 | 35.55266 | -77.01826 | 32275 ft | 328 kts | 262° |
| 2026-04-27 21:29 | 35.54019 | -77.07278 | 32278 ft | 339 kts | 262° |
| 2026-04-27 21:30 | 35.52725 | -77.12916 | 32278 ft | 347 kts | 261° |
| 2026-04-27 21:30 | 35.51402 | -77.18674 | 32275 ft | 353 kts | 261° |
| 2026-04-27 21:31 | 35.50056 | -77.24512 | 32277 ft | 357 kts | 261° |
| 2026-04-27 21:31 | 35.48694 | -77.30414 | 32264 ft | 361 kts | 261° |
| 2026-04-27 21:32 | 35.47324 | -77.36331 | 32265 ft | 363 kts | 261° |
| 2026-04-27 21:32 | 35.45936 | -77.42313 | 32263 ft | 365 kts | 261° |
| 2026-04-27 21:33 | 35.44546 | -77.48285 | 32268 ft | 366 kts | 261° |
| 2026-04-27 21:33 | 35.43143 | -77.54304 | 32267 ft | 367 kts | 260° |
| 2026-04-27 21:34 | 35.41732 | -77.60339 | 32269 ft | 368 kts | 260° |
| 2026-04-27 21:34 | 35.40318 | -77.66375 | 32267 ft | 369 kts | 260° |
| 2026-04-27 21:35 | 35.38896 | -77.72424 | 32268 ft | 369 kts | 260° |
| 2026-04-27 21:35 | 35.37472 | -77.78472 | 32267 ft | 369 kts | 260° |
| 2026-04-27 21:36 | 35.36053 | -77.84483 | 32249 ft | 370 kts | 260° |
| 2026-04-27 21:36 | 35.34621 | -77.90533 | 32245 ft | 370 kts | 259° |
| 2026-04-27 21:37 | 35.33184 | -77.96591 | 32243 ft | 370 kts | 259° |
| 2026-04-27 21:37 | 35.31744 | -78.02643 | 32242 ft | 370 kts | 259° |
| 2026-04-27 21:38 | 35.30305 | -78.08678 | 32242 ft | 368 kts | 259° |
| 2026-04-27 21:38 | 35.28875 | -78.14658 | 32239 ft | 367 kts | 259° |
| 2026-04-27 21:39 | 35.27439 | -78.20658 | 32237 ft | 366 kts | 259° |
| 2026-04-27 21:39 | 35.26001 | -78.26644 | 32234 ft | 366 kts | 259° |
| 2026-04-27 21:40 | 35.24573 | -78.32577 | 32233 ft | 365 kts | 259° |
| 2026-04-27 21:40 | 35.23132 | -78.38551 | 32234 ft | 365 kts | 259° |
| 2026-04-27 21:41 | 35.21689 | -78.44516 | 32230 ft | 365 kts | 259° |
| 2026-04-27 21:41 | 35.20243 | -78.50475 | 32227 ft | 365 kts | 259° |
| 2026-04-27 21:42 | 35.18796 | -78.56433 | 32225 ft | 365 kts | 258° |
| 2026-04-27 21:42 | 35.17354 | -78.62352 | 32227 ft | 365 kts | 258° |
| 2026-04-27 21:43 | 35.15899 | -78.68312 | 32205 ft | 365 kts | 258° |
| 2026-04-27 21:43 | 35.14438 | -78.74276 | 32200 ft | 365 kts | 258° |
| 2026-04-27 21:44 | 35.12987 | -78.80191 | 32197 ft | 365 kts | 258° |
| 2026-04-27 21:44 | 35.11522 | -78.86152 | 32193 ft | 366 kts | 258° |
| 2026-04-27 21:45 | 35.10063 | -78.92072 | 32194 ft | 366 kts | 258° |
| 2026-04-27 21:45 | 35.08592 | -78.98024 | 32199 ft | 366 kts | 258° |
| 2026-04-27 21:46 | 35.07120 | -79.03970 | 32205 ft | 365 kts | 258° |
| 2026-04-27 21:46 | 35.05645 | -79.09913 | 32206 ft | 365 kts | 258° |
| 2026-04-27 21:47 | 35.04169 | -79.15846 | 32208 ft | 365 kts | 258° |
| 2026-04-27 21:47 | 35.02688 | -79.21782 | 32208 ft | 365 kts | 258° |
| 2026-04-27 21:48 | 35.01205 | -79.27715 | 32185 ft | 366 kts | 258° |
| 2026-04-27 21:48 | 34.99728 | -79.33611 | 32183 ft | 366 kts | 258° |
| 2026-04-27 21:49 | 34.98238 | -79.39550 | 32176 ft | 366 kts | 258° |
| 2026-04-27 21:49 | 34.96995 | -79.44485 | 32177 ft | 366 kts | 258° |
| 2026-04-27 21:50 | 34.95253 | -79.51395 | 32178 ft | 366 kts | 258° |
| 2026-04-27 21:50 | 34.93997 | -79.56363 | 32178 ft | 366 kts | 258° |
| 2026-04-27 21:51 | 34.92503 | -79.62256 | 32205 ft | 366 kts | 258° |
| 2026-04-27 21:51 | 34.90994 | -79.68199 | 32204 ft | 366 kts | 258° |
| 2026-04-27 21:52 | 34.89485 | -79.74131 | 32204 ft | 367 kts | 258° |
| 2026-04-27 21:52 | 34.87978 | -79.80039 | 32204 ft | 367 kts | 258° |
| 2026-04-27 21:53 | 34.86461 | -79.85974 | 32205 ft | 367 kts | 258° |
| 2026-04-27 21:53 | 34.84940 | -79.91909 | 32202 ft | 367 kts | 258° |
| 2026-04-27 21:54 | 34.83415 | -79.97849 | 32194 ft | 368 kts | 258° |
| 2026-04-27 21:54 | 34.81886 | -80.03790 | 32194 ft | 368 kts | 258° |
| 2026-04-27 21:55 | 34.80361 | -80.09702 | 32195 ft | 368 kts | 257° |
| 2026-04-27 21:55 | 34.78825 | -80.15645 | 32198 ft | 368 kts | 257° |